createdAt,value
2018-06-19T02:23:19.743Z,85.02
2018-06-19T02:24:19.356Z,85.02
2018-06-19T02:25:19.475Z,85.12
2018-06-19T02:26:19.360Z,85.45
2018-06-19T02:27:19.292Z,85.83
2018-06-19T02:28:19.198Z,85.16
2018-06-19T02:29:19.220Z,84.88
2018-06-19T02:30:19.177Z,85.35
2018-06-19T02:31:19.163Z,86.12
2018-06-19T02:32:19.165Z,85.74
2018-06-19T02:33:19.160Z,85.06
2018-06-19T02:34:19.220Z,86.21
2018-06-19T02:35:19.759Z,84.88
2018-06-19T02:36:19.149Z,85.83
2018-06-19T02:37:19.113Z,85.25
2018-06-19T02:38:19.102Z,85.25
2018-06-19T02:39:19.080Z,85.25
2018-06-19T02:40:19.110Z,85.16
2018-06-19T02:41:19.066Z,84.88
2018-06-19T02:42:19.048Z,85.06
2018-06-19T02:43:19.044Z,86.12
2018-06-19T02:44:19.029Z,85.35
2018-06-19T02:45:19.177Z,85.45
2018-06-19T02:46:19.021Z,85.45
2018-06-19T02:47:19.026Z,85.06
2018-06-19T02:48:18.985Z,85.54
2018-06-19T02:49:18.980Z,85.35
2018-06-19T02:50:18.975Z,85.35
2018-06-19T02:51:19.112Z,85.45
2018-06-19T02:52:18.954Z,85.45
2018-06-19T02:53:18.944Z,84.88
2018-06-19T02:54:18.931Z,84.97
2018-06-19T02:55:18.939Z,84.97
2018-06-19T02:56:18.923Z,84.97
2018-06-19T02:57:19.235Z,85.06
2018-06-19T02:58:18.898Z,85.06
2018-06-19T02:59:18.892Z,85.16
2018-06-19T03:00:18.916Z,84.97
2018-06-19T03:01:18.884Z,85.54
2018-06-19T03:02:18.855Z,85.64
2018-06-19T03:03:18.858Z,85.54
2018-06-19T03:04:18.844Z,85.64
2018-06-19T03:05:18.824Z,85.16
2018-06-19T03:06:18.817Z,85.45
2018-06-19T03:07:18.812Z,85.06
2018-06-19T03:08:18.867Z,85.06
2018-06-19T03:09:18.846Z,85.35
2018-06-19T03:10:18.776Z,85.64
2018-06-19T03:11:18.773Z,85.35
2018-06-19T03:12:18.758Z,85.45
2018-06-19T03:13:18.777Z,85.25
2018-06-19T03:14:19.094Z,85.16
2018-06-19T03:15:18.724Z,85.83
2018-06-19T03:16:18.717Z,85.83
2018-06-19T03:17:18.714Z,85.45
2018-06-19T03:18:18.710Z,85.45
2018-06-19T03:19:18.690Z,85.25
2018-06-19T03:20:18.689Z,85.45
2018-06-19T03:21:18.669Z,84.88
2018-06-19T03:22:18.651Z,86.21
2018-06-19T03:23:18.651Z,85.74
2018-06-19T03:24:18.689Z,85.45
2018-06-19T03:25:18.642Z,86.50
2018-06-19T03:26:18.631Z,86.50
2018-06-19T03:27:18.603Z,86.12
2018-06-19T03:28:18.630Z,85.93
2018-06-19T03:29:18.588Z,86.21
2018-06-19T03:30:18.619Z,86.12
2018-06-19T03:31:19.016Z,87.08
2018-06-19T03:32:18.573Z,86.98
2018-06-19T03:33:18.872Z,86.98
2018-06-19T03:34:18.560Z,87.17
2018-06-19T03:35:18.583Z,87.17
2018-06-19T03:36:18.551Z,87.55
2018-06-19T03:37:18.555Z,86.94
2018-06-19T03:38:18.513Z,87.17
2018-06-19T03:39:18.498Z,87.61
2018-06-19T03:40:18.493Z,87.03
2018-06-19T03:41:23.166Z,87.41
2018-06-19T03:42:18.457Z,87.41
2018-06-19T03:43:18.689Z,87.08
2018-06-19T03:44:18.641Z,87.70
2018-06-19T03:45:18.751Z,86.98
2018-06-19T03:46:18.425Z,86.94
2018-06-19T03:47:18.531Z,87.74
2018-06-19T03:48:18.399Z,87.13
2018-06-19T03:49:18.400Z,87.51
2018-06-19T03:50:18.407Z,87.23
2018-06-19T03:51:18.409Z,87.32
2018-06-19T03:52:18.397Z,87.03
2018-06-19T03:53:18.516Z,87.70
2018-06-19T03:54:18.363Z,87.32
2018-06-19T03:55:18.355Z,87.32
2018-06-19T03:56:18.340Z,87.27
2018-06-19T03:57:18.451Z,86.94
2018-06-19T03:58:18.307Z,87.61
2018-06-19T03:59:18.722Z,87.03
2018-06-19T04:00:18.327Z,86.94
2018-06-19T04:01:18.289Z,86.84
2018-06-19T04:02:18.280Z,87.32
2018-06-19T04:03:18.321Z,87.23
2018-06-19T04:04:18.276Z,87.13
2018-06-19T04:05:18.807Z,87.32
2018-06-19T04:06:18.279Z,87.51
2018-06-19T04:07:18.227Z,87.13
2018-06-19T04:08:18.201Z,86.84
2018-06-19T04:09:18.209Z,87.23
2018-06-19T04:10:18.260Z,87.23
2018-06-19T04:11:18.178Z,87.41
2018-06-19T04:12:18.171Z,87.32
2018-06-19T04:13:19.394Z,87.23
2018-06-19T04:14:18.156Z,87.23
2018-06-19T04:15:18.184Z,87.23
2018-06-19T04:16:18.205Z,87.03
2018-06-19T04:17:18.250Z,87.23
2018-06-19T04:18:18.116Z,87.51
2018-06-19T04:19:18.109Z,86.94
2018-06-19T04:20:18.101Z,87.70
2018-06-19T04:21:18.087Z,87.23
2018-06-19T04:22:18.101Z,87.03
2018-06-19T04:23:18.160Z,86.94
2018-06-19T04:24:18.062Z,87.03
2018-06-19T04:25:18.119Z,87.13
2018-06-19T04:26:18.916Z,87.03
2018-06-19T04:31:21.819Z,87.03
2018-06-19T04:32:13.743Z,87.32
2018-06-19T04:33:18.915Z,87.70
2018-06-19T04:34:13.768Z,87.41
2018-06-19T04:35:11.892Z,87.13
2018-06-19T04:36:11.882Z,87.03
2018-06-19T04:37:11.853Z,87.61
2018-06-19T04:38:11.861Z,87.61
2018-06-19T04:39:11.978Z,87.32
2018-06-19T04:40:12.010Z,87.41
2018-06-19T04:41:11.830Z,87.80
2018-06-19T04:42:11.839Z,87.51
2018-06-19T04:43:11.825Z,87.61
2018-06-19T04:44:11.902Z,87.51
2018-06-19T04:45:11.862Z,87.32
2018-06-19T04:46:11.933Z,87.70
2018-06-19T04:47:11.762Z,87.13
2018-06-19T04:48:11.779Z,87.41
2018-06-19T04:49:11.728Z,86.84
2018-06-19T04:50:11.734Z,87.27
2018-06-19T04:51:11.780Z,87.17
2018-06-19T04:52:11.759Z,87.74
2018-06-19T04:53:11.722Z,88.03
2018-06-19T04:54:12.224Z,87.65
2018-06-19T04:55:11.682Z,86.88
2018-06-19T04:56:12.555Z,87.41
2018-06-19T04:57:11.673Z,87.37
2018-06-19T04:58:11.657Z,87.03
2018-06-19T04:59:11.639Z,87.37
2018-06-19T05:00:11.640Z,86.79
2018-06-19T05:01:11.618Z,86.98
2018-06-19T05:02:12.589Z,87.23
2018-06-19T05:03:11.592Z,87.46
2018-06-19T05:04:11.610Z,87.27
2018-06-19T05:05:11.575Z,87.46
2018-06-19T05:06:11.569Z,87.65
2018-06-19T05:07:11.623Z,87.65
2018-06-19T05:08:11.545Z,87.46
2018-06-19T05:09:11.542Z,87.46
2018-06-19T05:10:11.541Z,87.27
2018-06-19T05:11:11.548Z,87.08
2018-06-19T05:12:11.516Z,87.37
2018-06-19T05:13:11.543Z,87.55
2018-06-19T05:14:12.692Z,86.50
2018-06-19T05:15:11.484Z,86.60
2018-06-19T05:16:11.468Z,86.69
2018-06-19T05:17:11.478Z,87.55
2018-06-19T05:18:11.453Z,87.08
2018-06-19T05:19:11.531Z,87.08
2018-06-19T05:20:11.437Z,87.17
2018-06-19T05:21:11.428Z,86.88
2018-06-19T05:22:11.422Z,86.60
2018-06-19T05:23:11.431Z,86.69
2018-06-19T05:24:11.387Z,86.31
2018-06-19T05:25:11.447Z,86.79
2018-06-19T05:26:11.499Z,87.08
2018-06-19T05:27:11.465Z,87.17
2018-06-19T05:28:11.347Z,86.98
2018-06-19T05:29:11.355Z,86.98
2018-06-19T05:30:11.337Z,86.50
2018-06-19T05:31:11.333Z,86.98
2018-06-19T05:32:11.521Z,86.31
2018-06-19T05:33:11.298Z,86.12
2018-06-19T05:34:11.316Z,86.12
2018-06-19T05:35:11.300Z,86.02
2018-06-19T05:36:11.279Z,86.69
2018-06-19T05:37:11.307Z,86.60
2018-06-19T05:38:11.277Z,86.50
2018-06-19T05:39:11.267Z,86.50
2018-06-19T05:40:11.275Z,86.41
2018-06-19T05:41:11.224Z,86.12
2018-06-19T05:42:11.667Z,86.79
2018-06-19T05:43:11.876Z,86.88
2018-06-19T05:44:11.216Z,86.88
2018-06-19T05:45:11.198Z,87.08
2018-06-19T05:46:11.243Z,87.17
2018-06-19T05:47:11.192Z,86.79
2018-06-19T05:48:13.760Z,87.08
2018-06-19T05:49:11.158Z,87.08
2018-06-19T05:50:11.183Z,87.08
2018-06-19T05:51:11.139Z,87.74
2018-06-19T05:52:11.199Z,87.65
2018-06-19T05:53:11.119Z,87.74
2018-06-19T05:54:11.166Z,87.37
2018-06-19T05:55:11.136Z,87.17
2018-06-19T05:56:11.216Z,87.84
2018-06-19T05:57:11.239Z,88.03
2018-06-19T05:58:11.216Z,88.03
2018-06-19T05:59:11.068Z,87.84
2018-06-19T06:00:11.088Z,88.23
2018-06-19T06:01:11.074Z,88.03
2018-06-19T06:02:11.354Z,88.42
2018-06-19T06:03:11.268Z,88.03
2018-06-19T06:04:11.160Z,87.94
2018-06-19T06:05:11.001Z,88.32
2018-06-19T06:06:10.997Z,88.23
2018-06-19T06:07:10.988Z,88.42
2018-06-19T06:08:11.002Z,88.42
2018-06-19T06:09:10.976Z,88.51
2018-06-19T06:10:10.959Z,88.61
2018-06-19T06:11:11.006Z,88.42
2018-06-19T06:12:10.923Z,88.03
2018-06-19T06:13:10.938Z,88.03
2018-06-19T06:14:10.912Z,88.42
2018-06-19T06:15:10.896Z,88.03
2018-06-19T06:16:10.947Z,87.74
2018-06-19T06:17:10.894Z,88.51
2018-06-19T06:18:10.876Z,88.51
2018-06-19T06:19:10.898Z,88.51
2018-06-19T06:20:10.849Z,88.51
2018-06-19T06:21:10.887Z,88.08
2018-06-19T06:22:10.915Z,87.94
2018-06-19T06:23:10.834Z,88.17
2018-06-19T06:24:10.829Z,87.60
2018-06-19T06:25:10.811Z,87.65
2018-06-19T06:26:10.837Z,87.98
2018-06-19T06:27:11.489Z,88.17
2018-06-19T06:28:10.785Z,87.98
2018-06-19T06:29:10.767Z,87.70
2018-06-19T06:30:10.823Z,87.98
2018-06-19T06:31:10.780Z,87.98
2018-06-19T06:32:10.768Z,87.88
2018-06-19T06:33:10.774Z,87.84
2018-06-19T06:34:10.720Z,88.27
2018-06-19T06:35:10.727Z,88.03
2018-06-19T06:36:10.908Z,87.65
2018-06-19T06:37:11.008Z,88.27
2018-06-19T06:38:10.701Z,88.37
2018-06-19T06:39:10.715Z,88.65
2018-06-19T06:40:10.678Z,88.75
2018-06-19T06:41:11.280Z,87.88
2018-06-19T06:42:10.705Z,87.70
2018-06-19T06:43:10.871Z,87.21
2018-06-19T06:44:10.620Z,87.02
2018-06-19T06:45:10.630Z,87.21
2018-06-19T06:46:10.658Z,87.41
2018-06-19T06:47:10.602Z,87.12
2018-06-19T06:48:10.595Z,87.50
2018-06-19T06:49:10.847Z,87.98
2018-06-19T06:50:10.589Z,87.79
2018-06-19T06:51:11.277Z,88.27
2018-06-19T06:52:10.569Z,87.98
2018-06-19T06:53:10.553Z,86.93
2018-06-19T06:54:10.831Z,87.60
2018-06-19T06:55:10.528Z,87.88
2018-06-19T06:56:10.519Z,88.08
2018-06-19T06:57:10.526Z,88.08
2018-06-19T06:58:10.497Z,87.21
2018-06-19T06:59:10.491Z,87.21
2018-06-19T07:00:10.511Z,87.50
2018-06-19T07:01:10.479Z,87.50
2018-06-19T07:02:10.469Z,87.70
2018-06-19T07:03:10.452Z,87.64
2018-06-19T07:04:10.443Z,86.49
2018-06-19T07:05:10.471Z,87.16
2018-06-19T07:06:11.308Z,87.45
2018-06-19T07:07:10.444Z,86.21
2018-06-19T07:08:10.420Z,86.30
2018-06-19T07:09:10.455Z,87.45
2018-06-19T07:10:10.452Z,87.35
2018-06-19T07:11:10.410Z,86.97
2018-06-19T07:12:10.373Z,86.78
2018-06-19T07:13:10.367Z,87.26
2018-06-19T07:14:10.356Z,86.44
2018-06-19T07:15:10.368Z,86.88
2018-06-19T07:16:10.499Z,86.44
2018-06-19T07:17:10.329Z,86.44
2018-06-19T07:18:10.389Z,86.21
2018-06-19T07:19:10.397Z,86.63
2018-06-19T07:20:10.311Z,86.05
2018-06-19T07:21:10.313Z,85.44
2018-06-19T07:22:10.304Z,85.58
2018-06-19T07:23:10.310Z,85.28
2018-06-19T07:24:10.282Z,85.28
2018-06-19T07:25:10.268Z,85.10
2018-06-19T07:26:10.269Z,85.48
2018-06-19T07:27:10.273Z,85.10
2018-06-19T07:28:10.234Z,85.38
2018-06-19T07:29:10.330Z,84.81
2018-06-19T07:30:10.235Z,85.38
2018-06-19T07:31:10.203Z,84.23
2018-06-19T07:32:10.209Z,84.33
2018-06-19T07:33:10.213Z,84.42
2018-06-19T07:34:10.194Z,84.33
2018-06-19T07:35:10.209Z,84.42
2018-06-19T07:36:10.157Z,84.14
2018-06-19T07:37:10.157Z,85.10
2018-06-19T07:38:10.242Z,85.00
2018-06-19T07:39:10.183Z,84.33
2018-06-19T07:40:10.140Z,84.04
2018-06-19T07:41:10.134Z,83.94
2018-06-19T07:42:10.123Z,83.56
2018-06-19T07:43:10.116Z,84.42
2018-06-19T07:44:10.158Z,84.04
2018-06-19T07:45:10.098Z,83.85
2018-06-19T07:46:10.092Z,83.75
2018-06-19T07:47:10.081Z,83.37
2018-06-19T07:48:10.060Z,82.98
2018-06-19T07:49:10.087Z,83.85
2018-06-19T07:50:10.052Z,83.65
2018-06-19T07:51:10.067Z,83.65
2018-06-19T07:52:10.036Z,84.04
2018-06-19T07:53:10.078Z,84.33
2018-06-19T07:54:10.019Z,84.42
2018-06-19T07:55:10.013Z,85.28
2018-06-19T07:56:10.007Z,84.33
2018-06-19T07:57:09.994Z,84.81
2018-06-19T07:58:09.988Z,84.42
2018-06-19T07:59:09.967Z,84.71
2018-06-19T08:00:09.963Z,84.42
2018-06-19T08:01:10.103Z,84.04
2018-06-19T08:02:09.949Z,84.33
2018-06-19T08:03:09.937Z,84.23
2018-06-19T08:04:09.939Z,84.42
2018-06-19T08:05:09.921Z,83.94
2018-06-19T08:06:10.002Z,85.19
2018-06-19T08:07:09.894Z,84.52
2018-06-19T08:08:09.899Z,84.61
2018-06-19T08:09:09.886Z,84.14
2018-06-19T08:10:09.869Z,84.61
2018-06-19T08:11:09.865Z,83.94
2018-06-19T08:12:10.014Z,84.42
2018-06-19T08:13:09.847Z,84.52
2018-06-19T08:14:09.831Z,85.28
2018-06-19T08:15:09.831Z,84.81
2018-06-19T08:16:09.832Z,85.10
2018-06-19T08:17:09.811Z,85.00
2018-06-19T08:18:09.858Z,85.00
2018-06-19T08:19:09.794Z,85.19
2018-06-19T08:20:09.788Z,85.86
2018-06-19T08:21:09.773Z,85.00
2018-06-19T08:22:09.783Z,85.00
2018-06-19T08:23:09.763Z,85.00
2018-06-19T08:24:09.783Z,85.48
2018-06-19T08:25:09.751Z,85.19
2018-06-19T08:26:09.753Z,85.10
2018-06-19T08:27:09.738Z,85.52
2018-06-19T08:28:09.730Z,85.33
2018-06-19T08:29:09.751Z,85.14
2018-06-19T08:30:09.716Z,84.61
2018-06-19T08:31:09.897Z,85.00
2018-06-19T08:32:09.823Z,85.00
2018-06-19T08:33:10.091Z,85.67
2018-06-19T08:34:09.710Z,85.00
2018-06-19T08:35:09.661Z,85.86
2018-06-19T08:36:09.670Z,85.48
2018-06-19T08:37:09.645Z,85.38
2018-06-19T08:38:09.639Z,85.96
2018-06-19T08:39:09.634Z,85.96
2018-06-19T08:40:09.782Z,86.25
2018-06-19T08:41:09.625Z,86.63
2018-06-19T08:42:09.601Z,87.21
2018-06-19T08:43:09.602Z,87.40
2018-06-19T08:44:09.586Z,87.49
2018-06-19T08:45:09.676Z,87.40
2018-06-19T08:46:09.612Z,87.68
2018-06-19T08:47:10.336Z,87.11
2018-06-19T08:48:09.563Z,87.78
2018-06-19T08:49:09.540Z,88.65
2018-06-19T08:50:09.530Z,88.65
2018-06-19T08:51:09.537Z,88.35
2018-06-19T08:52:09.514Z,88.55
2018-06-19T08:53:09.510Z,89.51
2018-06-19T08:54:09.507Z,89.70
2018-06-19T08:55:09.512Z,89.79
2018-06-19T08:56:09.496Z,88.93
2018-06-19T08:57:09.467Z,89.41
2018-06-19T08:58:09.468Z,89.12
2018-06-19T08:59:11.356Z,89.03
2018-06-19T09:00:09.483Z,89.12
2018-06-19T09:01:09.436Z,89.12
2018-06-19T09:02:09.461Z,89.12
2018-06-19T09:03:09.411Z,89.41
2018-06-19T09:04:09.410Z,89.51
2018-06-19T09:05:09.406Z,89.41
2018-06-19T09:06:09.402Z,89.41
2018-06-19T09:07:09.490Z,88.93
2018-06-19T09:08:09.418Z,88.74
2018-06-19T09:09:09.360Z,88.74
2018-06-19T09:10:09.354Z,88.74
2018-06-19T09:11:09.384Z,89.22
2018-06-19T09:12:09.368Z,89.41
2018-06-19T09:13:09.338Z,89.32
2018-06-19T09:14:09.338Z,88.45
2018-06-19T09:15:09.327Z,88.55
2018-06-19T09:16:09.349Z,88.35
2018-06-19T09:17:09.378Z,88.17
2018-06-19T09:18:09.295Z,88.26
2018-06-19T09:19:09.356Z,88.07
2018-06-19T09:20:09.322Z,87.98
2018-06-19T09:21:09.298Z,87.88
2018-06-19T09:22:09.868Z,88.02
2018-06-19T09:23:09.246Z,87.92
2018-06-19T09:24:09.236Z,87.35
2018-06-19T09:25:09.236Z,87.68
2018-06-19T09:26:09.228Z,87.63
2018-06-19T09:27:09.207Z,87.63
2018-06-19T09:28:11.856Z,87.25
2018-06-19T09:29:09.205Z,87.25
2018-06-19T09:30:09.191Z,87.25
2018-06-19T09:31:09.187Z,87.44
2018-06-19T09:32:09.177Z,86.87
2018-06-19T09:33:09.173Z,87.05
2018-06-19T09:34:09.152Z,87.15
2018-06-19T09:35:09.154Z,86.96
2018-06-19T09:36:09.140Z,87.25
2018-06-19T09:37:09.127Z,87.63
2018-06-19T09:38:09.144Z,87.63
2018-06-19T09:39:09.119Z,87.25
2018-06-19T09:40:09.138Z,87.25
2018-06-19T09:41:09.100Z,87.35
2018-06-19T09:42:09.086Z,87.35
2018-06-19T09:43:09.087Z,88.02
2018-06-19T09:44:09.087Z,87.25
2018-06-19T09:45:09.063Z,87.05
2018-06-19T09:46:09.060Z,87.25
2018-06-19T09:47:09.121Z,87.05
2018-06-19T09:48:09.032Z,87.54
2018-06-19T09:49:09.031Z,87.82
2018-06-19T09:50:09.013Z,87.63
2018-06-19T09:51:09.030Z,87.63
2018-06-19T09:52:09.010Z,87.54
2018-06-19T09:53:09.001Z,87.35
2018-06-19T09:54:09.000Z,87.25
2018-06-19T09:55:15.025Z,86.87
2018-06-19T09:56:10.865Z,87.54
2018-06-19T09:57:08.984Z,87.25
2018-06-19T09:58:08.948Z,87.25
2018-06-19T09:59:09.003Z,87.25
2018-06-19T10:00:08.937Z,87.63
2018-06-19T10:01:08.925Z,87.35
2018-06-19T10:02:08.951Z,87.35
2018-06-19T10:03:09.421Z,87.35
2018-06-19T10:04:08.906Z,87.25
2018-06-19T10:05:08.894Z,87.35
2018-06-19T10:06:08.885Z,87.44
2018-06-19T10:07:08.891Z,87.35
2018-06-19T10:08:08.915Z,87.15
2018-06-19T10:09:08.869Z,87.73
2018-06-19T10:10:08.855Z,87.35
2018-06-19T10:11:08.845Z,87.25
2018-06-19T10:12:09.428Z,87.25
2018-06-19T10:13:09.378Z,87.44
2018-06-19T10:14:10.366Z,87.39
2018-06-19T10:15:08.819Z,87.44
2018-06-19T10:16:08.806Z,87.44
2018-06-19T10:17:08.797Z,87.63
2018-06-19T10:18:08.792Z,86.81
2018-06-19T10:19:09.458Z,86.77
2018-06-19T10:20:08.773Z,86.72
2018-06-19T10:21:08.764Z,86.91
2018-06-19T10:22:08.751Z,86.91
2018-06-19T10:23:08.740Z,87.19
2018-06-19T10:24:08.869Z,87.29
2018-06-19T10:25:08.736Z,86.33
2018-06-19T10:26:08.715Z,86.05
2018-06-19T10:27:08.725Z,85.85
2018-06-19T10:28:08.697Z,86.14
2018-06-19T10:29:08.687Z,86.52
2018-06-19T10:30:08.829Z,85.95
2018-06-19T10:31:08.795Z,86.09
2018-06-19T10:32:08.696Z,86.24
2018-06-19T10:33:08.672Z,86.38
2018-06-19T10:34:08.665Z,85.41
2018-06-19T10:35:08.656Z,85.08
2018-06-19T10:36:08.678Z,85.28
2018-06-19T10:37:08.706Z,85.22
2018-06-19T10:38:08.671Z,85.61
2018-06-19T10:39:08.653Z,85.32
2018-06-19T10:40:08.867Z,85.22
2018-06-19T10:41:09.065Z,85.41
2018-06-19T10:42:09.815Z,85.61
2018-06-19T10:43:08.582Z,85.71
2018-06-19T10:44:08.571Z,86.18
2018-06-19T10:45:08.601Z,85.99
2018-06-19T10:46:08.650Z,85.99
2018-06-19T10:47:08.558Z,85.22
2018-06-19T10:48:08.559Z,84.94
2018-06-19T10:49:08.530Z,85.22
2018-06-19T10:50:08.561Z,85.03
2018-06-19T10:51:08.524Z,85.13
2018-06-19T10:52:08.554Z,85.32
2018-06-19T10:53:08.510Z,85.22
2018-06-19T10:54:08.504Z,84.94
2018-06-19T10:55:09.377Z,85.13
2018-06-19T10:56:08.498Z,84.45
2018-06-19T10:57:08.550Z,84.17
2018-06-19T10:58:08.476Z,84.74
2018-06-19T10:59:08.473Z,85.03
2018-06-19T11:00:08.473Z,84.45
2018-06-19T11:01:08.451Z,85.32
2018-06-19T11:02:08.442Z,85.32
2018-06-19T11:03:08.441Z,85.22
2018-06-19T11:04:08.448Z,85.41
2018-06-19T11:05:08.474Z,84.94
2018-06-19T11:06:08.414Z,84.94
2018-06-19T11:07:08.568Z,84.84
2018-06-19T11:08:08.400Z,85.36
2018-06-19T11:09:08.387Z,85.17
2018-06-19T11:10:08.375Z,85.32
2018-06-19T11:11:08.370Z,85.75
2018-06-19T11:12:08.361Z,85.84
2018-06-19T11:13:08.512Z,85.27
2018-06-19T11:14:08.443Z,84.69
2018-06-19T11:15:08.352Z,85.27
2018-06-19T11:16:08.338Z,85.41
2018-06-19T11:17:08.315Z,84.98
2018-06-19T11:18:08.365Z,85.07
2018-06-19T11:19:08.909Z,84.98
2018-06-19T11:20:08.418Z,85.27
2018-06-19T11:21:08.310Z,84.88
2018-06-19T11:22:08.303Z,84.78
2018-06-19T11:23:08.291Z,84.98
2018-06-19T11:24:08.499Z,85.75
2018-06-19T11:25:12.434Z,84.78
2018-06-19T11:26:08.256Z,85.27
2018-06-19T11:27:08.452Z,84.40
2018-06-19T11:28:08.252Z,85.36
2018-06-19T11:29:08.314Z,84.78
2018-06-19T11:30:08.228Z,85.27
2018-06-19T11:31:08.377Z,86.13
2018-06-19T11:32:08.221Z,85.50
2018-06-19T11:33:08.214Z,85.50
2018-06-19T11:34:08.193Z,85.31
2018-06-19T11:35:08.209Z,84.63
2018-06-19T11:36:08.224Z,84.29
2018-06-19T11:37:08.216Z,83.81
2018-06-19T11:38:08.207Z,83.42
2018-06-19T11:39:08.165Z,83.04
2018-06-19T11:40:08.169Z,82.08
2018-06-19T11:41:08.163Z,82.17
2018-06-19T11:42:08.184Z,81.79
2018-06-19T11:43:08.217Z,82.17
2018-06-19T11:44:08.541Z,81.88
2018-06-19T11:45:08.313Z,81.50
2018-06-19T11:46:08.134Z,81.60
2018-06-19T11:47:08.158Z,81.40
2018-06-19T11:48:08.111Z,81.40
2018-06-19T11:49:09.952Z,81.88
2018-06-19T11:50:08.105Z,81.60
2018-06-19T11:51:08.113Z,82.23
2018-06-19T11:52:08.341Z,82.52
2018-06-19T11:53:08.078Z,82.42
2018-06-19T11:54:08.285Z,82.81
2018-06-19T11:55:08.071Z,82.81
2018-06-19T11:56:09.914Z,82.71
2018-06-19T11:57:08.067Z,82.81
2018-06-19T11:58:08.071Z,82.90
2018-06-19T11:59:08.051Z,83.00
2018-06-19T12:00:08.240Z,83.00
2018-06-19T12:01:08.056Z,83.58
2018-06-19T12:02:08.024Z,84.25
2018-06-19T12:03:08.348Z,84.54
2018-06-19T12:05:45.962Z,84.63
2018-06-19T12:07:26.202Z,82.71
2018-06-19T12:08:25.169Z,82.52
2018-06-19T12:09:25.168Z,83.09
2018-06-19T12:10:25.707Z,83.29
2018-06-19T12:11:25.160Z,83.19
2018-06-19T12:12:26.100Z,83.77
2018-06-19T12:13:25.118Z,83.67
2018-06-19T12:14:25.097Z,83.09
2018-06-19T12:15:25.699Z,83.67
2018-06-19T12:16:25.731Z,84.25
2018-06-19T12:17:27.848Z,83.67
2018-06-19T12:18:25.425Z,83.67
2018-06-19T12:19:25.068Z,83.73
2018-06-19T12:20:25.094Z,84.01
2018-06-19T12:21:25.737Z,83.96
2018-06-19T12:22:27.857Z,84.63
2018-06-19T12:23:29.720Z,84.63
2018-06-19T12:24:25.027Z,84.59
2018-06-19T12:25:29.714Z,84.21
2018-06-19T12:26:25.010Z,84.16
2018-06-19T12:27:25.241Z,84.92
2018-06-19T12:28:25.013Z,84.83
2018-06-19T12:29:25.001Z,83.96
2018-06-19T12:30:24.996Z,84.54
2018-06-19T12:31:24.993Z,83.86
2018-06-19T12:32:25.716Z,83.67
2018-06-19T12:33:24.967Z,84.34
2018-06-19T12:34:28.229Z,84.73
2018-06-19T12:35:25.219Z,84.73
2018-06-19T12:36:25.856Z,83.72
2018-06-19T12:37:25.100Z,83.52
2018-06-19T12:38:24.937Z,83.04
2018-06-19T12:39:24.922Z,83.23
2018-06-19T12:40:24.943Z,83.23
2018-06-19T12:41:24.916Z,83.14
2018-06-19T12:42:24.947Z,82.75
2018-06-19T12:43:24.929Z,82.85
2018-06-19T12:44:25.988Z,82.56
2018-06-19T12:45:24.921Z,82.37
2018-06-19T12:46:25.167Z,82.08
2018-06-19T12:47:24.899Z,82.37
2018-06-19T12:48:31.756Z,82.17
2018-06-19T12:49:24.857Z,82.08
2018-06-19T12:50:25.209Z,82.37
2018-06-19T12:51:24.833Z,83.72
2018-06-19T12:52:24.821Z,83.33
2018-06-19T12:53:24.823Z,83.91
2018-06-19T12:54:24.825Z,83.52
2018-06-19T12:55:24.808Z,83.14
2018-06-19T12:56:25.262Z,83.33
2018-06-19T12:57:24.840Z,83.14
2018-06-19T12:58:24.807Z,83.42
2018-06-19T12:59:24.844Z,82.85
2018-06-19T13:00:26.723Z,83.04
2018-06-19T13:01:24.771Z,82.94
2018-06-19T13:02:24.807Z,82.94
2018-06-19T13:03:26.745Z,83.33
2018-06-19T13:04:24.750Z,83.33
2018-06-19T13:05:25.723Z,83.33
2018-06-19T13:06:24.737Z,83.00
2018-06-19T13:07:24.733Z,82.94
2018-06-19T13:08:24.748Z,83.00
2018-06-19T13:09:26.237Z,82.81
2018-06-19T13:10:24.782Z,82.90
2018-06-19T13:11:24.696Z,82.81
2018-06-19T13:12:24.711Z,82.90
2018-06-19T13:13:24.724Z,83.09
2018-06-19T13:14:24.925Z,83.67
2018-06-19T13:15:24.678Z,83.48
2018-06-19T13:16:24.845Z,83.62
2018-06-19T13:17:24.705Z,83.14
2018-06-19T13:18:26.559Z,83.33
2018-06-19T13:19:24.667Z,83.72
2018-06-19T13:20:31.254Z,84.00
2018-06-19T13:21:24.720Z,83.72
2018-06-19T13:22:24.715Z,83.52
2018-06-19T13:23:24.659Z,84.00
2018-06-19T13:24:24.754Z,83.33
2018-06-19T13:25:24.694Z,82.08
2018-06-19T13:26:46.263Z,81.98
2018-06-19T13:27:24.585Z,81.50
2018-06-19T13:28:25.274Z,81.30
2018-06-19T13:29:24.650Z,81.54
2018-06-19T13:30:24.612Z,81.73
2018-06-19T13:31:24.551Z,81.16
2018-06-19T13:32:25.128Z,80.77
2018-06-19T13:33:25.227Z,80.77
2018-06-19T13:34:24.679Z,81.16
2018-06-19T13:35:25.331Z,81.06
2018-06-19T13:36:25.255Z,81.45
2018-06-19T13:37:25.259Z,81.96
2018-06-19T13:38:24.513Z,80.91
2018-06-19T13:39:24.562Z,80.43
2018-06-19T13:40:24.810Z,80.81
2018-06-19T13:41:24.490Z,81.20
2018-06-19T13:42:25.254Z,80.71
2018-06-19T13:43:24.498Z,80.71
2018-06-19T13:44:24.549Z,81.20
2018-06-19T13:45:24.460Z,80.33
2018-06-19T13:46:24.509Z,80.52
2018-06-19T13:52:00.833Z,79.46
2018-06-19T13:52:52.656Z,79.36
2018-06-19T13:53:52.278Z,80.43
2018-06-19T13:54:52.257Z,79.66
2018-06-19T13:55:52.351Z,79.94
2018-06-19T13:56:52.500Z,80.43
2018-06-19T13:57:52.265Z,79.66
2018-06-19T13:58:52.819Z,79.36
2018-06-19T13:59:52.242Z,79.66
2018-06-19T14:05:04.643Z,79.66
2018-06-19T14:06:04.153Z,79.75
2018-06-19T14:18:44.733Z,79.27
2018-06-19T14:19:44.733Z,79.85
2018-06-19T14:20:57.694Z,79.56
2018-06-19T14:21:44.699Z,79.85
2018-06-19T14:22:46.582Z,79.85
2018-06-19T14:23:44.699Z,79.08
2018-06-19T14:24:44.711Z,78.50
2018-06-19T14:25:46.314Z,78.40
2018-06-19T14:26:45.577Z,79.27
2018-06-19T14:27:54.107Z,78.88
2018-06-19T14:28:44.653Z,77.83
2018-06-19T14:29:44.770Z,78.21
2018-06-19T14:30:44.697Z,77.83
2018-06-19T14:31:44.756Z,77.73
2018-06-19T14:32:44.752Z,77.73
2018-06-19T14:33:46.619Z,77.73
2018-06-19T14:34:44.646Z,77.73
2018-06-19T14:35:44.697Z,77.92
2018-06-19T14:36:44.599Z,77.25
2018-06-19T14:37:44.598Z,77.25
2018-06-19T14:38:44.585Z,77.25
2018-06-19T14:39:44.604Z,77.92
2018-06-19T14:40:45.174Z,78.50
2018-06-19T14:41:44.581Z,77.25
2018-06-19T14:42:46.946Z,77.44
2018-06-19T14:43:44.678Z,77.25
2018-06-19T14:44:44.605Z,77.15
2018-06-19T14:45:44.582Z,77.34
2018-06-19T14:46:44.541Z,77.25
2018-06-19T14:47:44.529Z,77.53
2018-06-19T14:48:44.522Z,77.25
2018-06-19T14:49:44.507Z,78.02
2018-06-19T14:50:44.568Z,76.76
2018-06-19T14:51:44.510Z,76.57
2018-06-19T14:52:44.505Z,77.34
2018-06-19T14:53:44.495Z,77.44
2018-06-19T14:54:44.490Z,77.86
2018-06-19T14:55:44.520Z,77.48
2018-06-19T14:56:44.505Z,77.19
2018-06-19T14:57:44.483Z,78.15
2018-06-19T14:58:44.477Z,78.63
2018-06-19T14:59:44.622Z,78.15
2018-06-19T15:00:44.493Z,78.06
2018-06-19T15:01:44.495Z,78.06
2018-06-19T15:02:44.583Z,78.34
2018-06-19T15:03:44.434Z,78.06
2018-06-19T15:04:44.429Z,77.86
2018-06-19T15:05:44.414Z,78.02
2018-06-19T15:06:44.410Z,77.96
2018-06-19T15:07:44.399Z,78.34
2018-06-19T15:08:44.415Z,77.96
2018-06-19T15:09:44.387Z,78.15
2018-06-19T15:10:44.386Z,78.25
2018-06-19T15:11:44.375Z,78.06
2018-06-19T15:12:44.377Z,78.92
2018-06-19T15:13:44.444Z,78.25
2018-06-19T15:14:44.367Z,78.34
2018-06-19T15:15:44.354Z,78.25
2018-06-19T15:16:44.352Z,78.73
2018-06-19T15:17:44.344Z,79.08
2018-06-19T15:18:44.825Z,79.02
2018-06-19T15:19:44.378Z,78.25
2018-06-19T15:20:47.408Z,77.73
2018-06-19T15:21:44.328Z,78.21
2018-06-19T15:22:44.316Z,78.56
2018-06-19T15:23:44.303Z,79.61
2018-06-19T15:24:44.334Z,79.85
2018-06-19T15:25:44.666Z,79.71
2018-06-19T15:26:44.333Z,80.19
2018-06-19T15:31:22.127Z,81.83
2018-06-19T15:32:22.099Z,83.28
2018-06-19T15:33:22.059Z,83.08
2018-06-19T15:34:22.064Z,82.89
2018-06-19T15:35:22.054Z,83.18
2018-06-19T15:36:22.066Z,83.56
2018-06-19T15:37:22.381Z,83.14
2018-06-19T15:38:22.020Z,83.18
2018-06-19T15:39:22.021Z,83.37
2018-06-19T15:40:22.013Z,83.23
2018-06-19T15:41:22.001Z,83.33
2018-06-19T15:42:21.997Z,83.18
2018-06-19T15:43:21.998Z,83.28
2018-06-19T15:44:21.991Z,83.52
2018-06-19T15:45:21.992Z,83.28